sensor_id;sensor_type;location;lat;lon;timestamp;temperature;humidity
10312;DHT22;5201;48.776;9.128;2023-02-28T00:00:04;-1.20;98.20
10312;DHT22;5201;48.776;9.128;2023-02-28T00:02:37;-1.20;98.40
10312;DHT22;5201;48.776;9.128;2023-02-28T00:05:03;-1.20;98.50
10312;DHT22;5201;48.776;9.128;2023-02-28T00:07:30;-1.10;98.40
10312;DHT22;5201;48.776;9.128;2023-02-28T00:10:06;-1.10;98.50
10312;DHT22;5201;48.776;9.128;2023-02-28T00:12:33;-1.20;98.50
10312;DHT22;5201;48.776;9.128;2023-02-28T00:14:59;-0.40;99.00
10312;DHT22;5201;48.776;9.128;2023-02-28T00:17:24;-1.30;98.60
10312;DHT22;5201;48.776;9.128;2023-02-28T00:19:51;-1.30;98.60
10312;DHT22;5201;48.776;9.128;2023-02-28T00:22:18;-1.20;98.70
10312;DHT22;5201;48.776;9.128;2023-02-28T00:24:44;-1.20;98.80
10312;DHT22;5201;48.776;9.128;2023-02-28T00:27:11;-1.40;98.80
10312;DHT22;5201;48.776;9.128;2023-02-28T00:29:37;-1.40;99.00
10312;DHT22;5201;48.776;9.128;2023-02-28T00:32:04;-1.20;98.90
10312;DHT22;5201;48.776;9.128;2023-02-28T00:34:30;-1.30;98.90
10312;DHT22;5201;48.776;9.128;2023-02-28T00:36:55;-1.40;99.10
10312;DHT22;5201;48.776;9.128;2023-02-28T00:39:21;-1.40;99.30
10312;DHT22;5201;48.776;9.128;2023-02-28T00:41:47;-1.30;99.20
10312;DHT22;5201;48.776;9.128;2023-02-28T00:44:13;-1.40;99.30
10312;DHT22;5201;48.776;9.128;2023-02-28T00:46:39;-1.60;99.50
10312;DHT22;5201;48.776;9.128;2023-02-28T00:49:04;-1.50;99.90
10312;DHT22;5201;48.776;9.128;2023-02-28T00:51:30;-1.50;99.70
10312;DHT22;5201;48.776;9.128;2023-02-28T00:53:55;-1.40;99.60
10312;DHT22;5201;48.776;9.128;2023-02-28T00:56:21;-0.70;99.90
10312;DHT22;5201;48.776;9.128;2023-02-28T00:58:47;-1.50;99.70
10312;DHT22;5201;48.776;9.128;2023-02-28T01:01:12;-0.30;99.90
10312;DHT22;5201;48.776;9.128;2023-02-28T01:03:38;-1.60;99.90
10312;DHT22;5201;48.776;9.128;2023-02-28T01:06:04;-1.50;99.90
10312;DHT22;5201;48.776;9.128;2023-02-28T01:08:29;-1.40;99.90
10312;DHT22;5201;48.776;9.128;2023-02-28T01:10:55;-1.30;99.90
10312;DHT22;5201;48.776;9.128;2023-02-28T01:13:21;-1.40;99.90
10312;DHT22;5201;48.776;9.128;2023-02-28T01:15:54;-1.50;99.90
10312;DHT22;5201;48.776;9.128;2023-02-28T01:18:21;-1.40;99.90
10312;DHT22;5201;48.776;9.128;2023-02-28T01:20:47;-1.30;99.90
10312;DHT22;5201;48.776;9.128;2023-02-28T01:23:12;-1.30;99.90
10312;DHT22;5201;48.776;9.128;2023-02-28T01:25:38;-1.70;99.90
10312;DHT22;5201;48.776;9.128;2023-02-28T01:28:04;-1.60;99.90
10312;DHT22;5201;48.776;9.128;2023-02-28T01:30:31;-1.50;99.90
10312;DHT22;5201;48.776;9.128;2023-02-28T01:32:57;-1.40;99.90
10312;DHT22;5201;48.776;9.128;2023-02-28T01:35:23;-1.40;99.90
10312;DHT22;5201;48.776;9.128;2023-02-28T01:37:48;-1.50;99.90
10312;DHT22;5201;48.776;9.128;2023-02-28T01:40:14;-1.50;99.90
10312;DHT22;5201;48.776;9.128;2023-02-28T01:42:39;-1.50;99.90
10312;DHT22;5201;48.776;9.128;2023-02-28T01:47:48;-1.60;99.90
10312;DHT22;5201;48.776;9.128;2023-02-28T01:50:19;-1.60;99.90
10312;DHT22;5201;48.776;9.128;2023-02-28T01:52:47;-1.70;99.90
10312;DHT22;5201;48.776;9.128;2023-02-28T01:55:14;-1.80;99.90
10312;DHT22;5201;48.776;9.128;2023-02-28T01:57:46;-1.60;99.90
10312;DHT22;5201;48.776;9.128;2023-02-28T02:00:16;-1.70;99.90
10312;DHT22;5201;48.776;9.128;2023-02-28T02:02:44;-1.70;99.90
10312;DHT22;5201;48.776;9.128;2023-02-28T02:05:23;-1.70;99.90
10312;DHT22;5201;48.776;9.128;2023-02-28T02:07:54;-1.60;99.90
10312;DHT22;5201;48.776;9.128;2023-02-28T02:10:21;-1.80;99.90
10312;DHT22;5201;48.776;9.128;2023-02-28T02:16:11;-1.80;99.90
10312;DHT22;5201;48.776;9.128;2023-02-28T02:19:13;-1.70;99.90
10312;DHT22;5201;48.776;9.128;2023-02-28T02:36:23;-1.40;99.90
10312;DHT22;5201;48.776;9.128;2023-02-28T02:38:47;-1.40;99.90
10312;DHT22;5201;48.776;9.128;2023-02-28T02:41:39;-1.30;99.90
10312;DHT22;5201;48.776;9.128;2023-02-28T02:44:20;-0.80;99.90
10312;DHT22;5201;48.776;9.128;2023-02-28T02:46:49;-1.20;99.90
10312;DHT22;5201;48.776;9.128;2023-02-28T02:49:21;-1.20;99.90
10312;DHT22;5201;48.776;9.128;2023-02-28T02:51:49;-1.30;99.90
10312;DHT22;5201;48.776;9.128;2023-02-28T02:54:20;-1.10;99.90
10312;DHT22;5201;48.776;9.128;2023-02-28T02:56:49;-1.20;99.90
10312;DHT22;5201;48.776;9.128;2023-02-28T02:59:19;-1.50;99.90
10312;DHT22;5201;48.776;9.128;2023-02-28T03:01:50;-1.50;99.90
10312;DHT22;5201;48.776;9.128;2023-02-28T03:04:20;-1.30;99.90
10312;DHT22;5201;48.776;9.128;2023-02-28T03:06:46;-1.40;99.90
10312;DHT22;5201;48.776;9.128;2023-02-28T03:09:12;-1.40;99.90
10312;DHT22;5201;48.776;9.128;2023-02-28T03:11:38;-1.30;99.90
10312;DHT22;5201;48.776;9.128;2023-02-28T03:14:44;-1.50;99.90
10312;DHT22;5201;48.776;9.128;2023-02-28T03:25:54;-1.20;99.90
10312;DHT22;5201;48.776;9.128;2023-02-28T03:28:43;-1.30;99.90
10312;DHT22;5201;48.776;9.128;2023-02-28T03:31:22;-1.20;99.90
10312;DHT22;5201;48.776;9.128;2023-02-28T03:33:59;-1.40;99.90
10312;DHT22;5201;48.776;9.128;2023-02-28T03:36:30;-1.50;99.90
10312;DHT22;5201;48.776;9.128;2023-02-28T03:39:01;-1.50;99.90
10312;DHT22;5201;48.776;9.128;2023-02-28T03:41:42;-1.40;99.90
10312;DHT22;5201;48.776;9.128;2023-02-28T03:44:17;-1.20;99.90
10312;DHT22;5201;48.776;9.128;2023-02-28T03:47:31;-1.20;99.90
10312;DHT22;5201;48.776;9.128;2023-02-28T03:52:18;-0.90;99.90
10312;DHT22;5201;48.776;9.128;2023-02-28T03:54:50;-0.90;99.90
10312;DHT22;5201;48.776;9.128;2023-02-28T03:57:26;-1.00;99.90
10312;DHT22;5201;48.776;9.128;2023-02-28T03:59:59;-1.20;99.90
10312;DHT22;5201;48.776;9.128;2023-02-28T04:02:27;-1.10;99.90
10312;DHT22;5201;48.776;9.128;2023-02-28T04:04:53;-1.20;99.90
10312;DHT22;5201;48.776;9.128;2023-02-28T04:07:19;-1.20;99.90
10312;DHT22;5201;48.776;9.128;2023-02-28T04:09:44;-1.20;99.90
10312;DHT22;5201;48.776;9.128;2023-02-28T04:12:10;-1.10;99.90
10312;DHT22;5201;48.776;9.128;2023-02-28T04:14:36;-0.30;99.90
10312;DHT22;5201;48.776;9.128;2023-02-28T04:17:01;-0.90;99.90
10312;DHT22;5201;48.776;9.128;2023-02-28T04:19:27;-0.80;99.90
10312;DHT22;5201;48.776;9.128;2023-02-28T04:21:53;-0.80;99.90
10312;DHT22;5201;48.776;9.128;2023-02-28T04:24:25;-0.90;99.90
10312;DHT22;5201;48.776;9.128;2023-02-28T04:26:52;-1.00;99.90
10312;DHT22;5201;48.776;9.128;2023-02-28T04:29:24;-0.90;99.90
10312;DHT22;5201;48.776;9.128;2023-02-28T04:31:50;-0.70;99.90
10312;DHT22;5201;48.776;9.128;2023-02-28T04:34:19;-0.80;99.90
10312;DHT22;5201;48.776;9.128;2023-02-28T04:36:45;-0.80;99.90
10312;DHT22;5201;48.776;9.128;2023-02-28T04:39:11;-0.80;99.90
10312;DHT22;5201;48.776;9.128;2023-02-28T04:41:37;-1.10;99.90
10312;DHT22;5201;48.776;9.128;2023-02-28T04:44:03;-1.20;99.90
10312;DHT22;5201;48.776;9.128;2023-02-28T04:46:29;-1.10;99.90
10312;DHT22;5201;48.776;9.128;2023-02-28T04:48:55;-1.00;99.90
10312;DHT22;5201;48.776;9.128;2023-02-28T04:51:21;-0.30;99.90
10312;DHT22;5201;48.776;9.128;2023-02-28T04:53:48;-1.20;99.90
10312;DHT22;5201;48.776;9.128;2023-02-28T04:56:16;-1.20;99.90
10312;DHT22;5201;48.776;9.128;2023-02-28T04:58:42;-1.00;99.90
10312;DHT22;5201;48.776;9.128;2023-02-28T05:01:26;-0.90;99.90
10312;DHT22;5201;48.776;9.128;2023-02-28T05:03:54;-0.90;99.90
10312;DHT22;5201;48.776;9.128;2023-02-28T05:06:22;-1.00;99.90
10312;DHT22;5201;48.776;9.128;2023-02-28T05:08:49;-1.00;99.90
10312;DHT22;5201;48.776;9.128;2023-02-28T05:11:33;-1.40;99.90
10312;DHT22;5201;48.776;9.128;2023-02-28T05:14:05;-1.30;99.90
10312;DHT22;5201;48.776;9.128;2023-02-28T05:16:32;-1.20;99.90
10312;DHT22;5201;48.776;9.128;2023-02-28T05:18:57;-1.00;99.90
10312;DHT22;5201;48.776;9.128;2023-02-28T05:21:38;-1.00;99.90
10312;DHT22;5201;48.776;9.128;2023-02-28T05:24:10;-1.10;99.90
10312;DHT22;5201;48.776;9.128;2023-02-28T05:26:38;-1.20;99.90
10312;DHT22;5201;48.776;9.128;2023-02-28T05:29:04;-2.50;99.90
10312;DHT22;5201;48.776;9.128;2023-02-28T05:31:30;-1.20;99.90
10312;DHT22;5201;48.776;9.128;2023-02-28T05:33:56;-1.20;99.90
10312;DHT22;5201;48.776;9.128;2023-02-28T05:36:23;-1.10;99.90
10312;DHT22;5201;48.776;9.128;2023-02-28T05:38:50;-1.00;99.90
10312;DHT22;5201;48.776;9.128;2023-02-28T05:41:16;-1.10;99.90
10312;DHT22;5201;48.776;9.128;2023-02-28T05:43:42;-1.10;99.90
10312;DHT22;5201;48.776;9.128;2023-02-28T05:46:10;-1.10;99.90
10312;DHT22;5201;48.776;9.128;2023-02-28T05:48:37;-1.00;99.90
10312;DHT22;5201;48.776;9.128;2023-02-28T05:51:04;-0.90;99.90
10312;DHT22;5201;48.776;9.128;2023-02-28T05:53:30;-0.80;99.90
10312;DHT22;5201;48.776;9.128;2023-02-28T05:55:56;-1.00;99.90
10312;DHT22;5201;48.776;9.128;2023-02-28T05:58:22;-0.90;99.90
10312;DHT22;5201;48.776;9.128;2023-02-28T06:00:48;-0.90;99.90
10312;DHT22;5201;48.776;9.128;2023-02-28T06:03:14;-0.90;99.90
10312;DHT22;5201;48.776;9.128;2023-02-28T06:05:39;-1.00;99.90
10312;DHT22;5201;48.776;9.128;2023-02-28T06:08:05;-1.00;99.90
10312;DHT22;5201;48.776;9.128;2023-02-28T06:10:33;-1.10;99.90
10312;DHT22;5201;48.776;9.128;2023-02-28T06:13:05;-1.00;99.90
10312;DHT22;5201;48.776;9.128;2023-02-28T06:15:31;-0.90;99.90
10312;DHT22;5201;48.776;9.128;2023-02-28T06:17:57;-1.00;99.90
10312;DHT22;5201;48.776;9.128;2023-02-28T06:20:24;-0.90;99.90
10312;DHT22;5201;48.776;9.128;2023-02-28T06:22:51;-1.00;99.90
10312;DHT22;5201;48.776;9.128;2023-02-28T06:25:17;-1.10;99.90
10312;DHT22;5201;48.776;9.128;2023-02-28T06:27:43;-0.90;99.90
10312;DHT22;5201;48.776;9.128;2023-02-28T06:30:10;-0.90;99.90
10312;DHT22;5201;48.776;9.128;2023-02-28T06:32:36;-0.90;99.90
10312;DHT22;5201;48.776;9.128;2023-02-28T06:35:02;-0.90;99.90
10312;DHT22;5201;48.776;9.128;2023-02-28T06:37:27;-0.80;99.90
10312;DHT22;5201;48.776;9.128;2023-02-28T06:39:54;-0.80;99.90
10312;DHT22;5201;48.776;9.128;2023-02-28T06:42:22;-0.80;99.90
10312;DHT22;5201;48.776;9.128;2023-02-28T06:44:50;-0.70;99.90
10312;DHT22;5201;48.776;9.128;2023-02-28T06:47:16;-0.70;99.90
10312;DHT22;5201;48.776;9.128;2023-02-28T06:49:42;-0.60;99.90
10312;DHT22;5201;48.776;9.128;2023-02-28T06:52:07;-0.80;99.90
10312;DHT22;5201;48.776;9.128;2023-02-28T06:54:34;-0.70;99.90
10312;DHT22;5201;48.776;9.128;2023-02-28T06:56:59;-0.60;99.90
10312;DHT22;5201;48.776;9.128;2023-02-28T06:59:25;-0.70;99.90
10312;DHT22;5201;48.776;9.128;2023-02-28T07:01:50;-0.60;99.90
10312;DHT22;5201;48.776;9.128;2023-02-28T07:04:16;-0.60;99.90
10312;DHT22;5201;48.776;9.128;2023-02-28T07:06:42;-0.50;99.90
10312;DHT22;5201;48.776;9.128;2023-02-28T07:09:07;-0.60;99.90
10312;DHT22;5201;48.776;9.128;2023-02-28T07:11:33;-0.50;99.90
10312;DHT22;5201;48.776;9.128;2023-02-28T07:13:59;-0.40;99.90
10312;DHT22;5201;48.776;9.128;2023-02-28T07:16:25;-0.50;99.90
10312;DHT22;5201;48.776;9.128;2023-02-28T07:18:54;-0.50;99.90
10312;DHT22;5201;48.776;9.128;2023-02-28T07:21:21;-0.70;99.90
10312;DHT22;5201;48.776;9.128;2023-02-28T07:23:46;-0.60;99.90
10312;DHT22;5201;48.776;9.128;2023-02-28T07:26:14;-0.70;99.90
10312;DHT22;5201;48.776;9.128;2023-02-28T07:28:41;-0.40;99.90
10312;DHT22;5201;48.776;9.128;2023-02-28T07:31:08;-0.40;99.90
10312;DHT22;5201;48.776;9.128;2023-02-28T07:33:34;-0.30;99.90
10312;DHT22;5201;48.776;9.128;2023-02-28T07:36:06;0.30;99.90
10312;DHT22;5201;48.776;9.128;2023-02-28T07:38:34;-1.30;99.90
10312;DHT22;5201;48.776;9.128;2023-02-28T07:41:01;-0.40;99.90
10312;DHT22;5201;48.776;9.128;2023-02-28T07:43:30;-0.70;99.90
10312;DHT22;5201;48.776;9.128;2023-02-28T07:45:55;-0.70;99.90
10312;DHT22;5201;48.776;9.128;2023-02-28T07:48:21;-0.50;99.90
10312;DHT22;5201;48.776;9.128;2023-02-28T07:50:57;-0.40;99.90
10312;DHT22;5201;48.776;9.128;2023-02-28T07:53:23;-0.50;99.90
10312;DHT22;5201;48.776;9.128;2023-02-28T07:55:49;-0.50;99.90
10312;DHT22;5201;48.776;9.128;2023-02-28T07:58:15;-0.40;99.90
10312;DHT22;5201;48.776;9.128;2023-02-28T08:00:40;-0.20;99.90
10312;DHT22;5201;48.776;9.128;2023-02-28T08:03:07;-0.20;99.90
10312;DHT22;5201;48.776;9.128;2023-02-28T08:05:40;-0.20;99.90
10312;DHT22;5201;48.776;9.128;2023-02-28T08:08:07;-0.10;99.90
10312;DHT22;5201;48.776;9.128;2023-02-28T08:10:32;0.60;99.90
10312;DHT22;5201;48.776;9.128;2023-02-28T08:12:58;-0.30;99.90
10312;DHT22;5201;48.776;9.128;2023-02-28T08:15:24;-0.30;99.90
10312;DHT22;5201;48.776;9.128;2023-02-28T08:17:49;-0.20;99.90
10312;DHT22;5201;48.776;9.128;2023-02-28T08:20:15;-0.10;99.90
10312;DHT22;5201;48.776;9.128;2023-02-28T08:22:40;-0.30;99.90
10312;DHT22;5201;48.776;9.128;2023-02-28T08:25:07;-0.20;99.90
10312;DHT22;5201;48.776;9.128;2023-02-28T08:27:33;0.00;99.90
10312;DHT22;5201;48.776;9.128;2023-02-28T08:29:59;-0.10;99.90
10312;DHT22;5201;48.776;9.128;2023-02-28T08:32:24;-0.20;99.90
10312;DHT22;5201;48.776;9.128;2023-02-28T08:34:50;-0.40;99.90
10312;DHT22;5201;48.776;9.128;2023-02-28T08:37:16;-0.20;99.90
10312;DHT22;5201;48.776;9.128;2023-02-28T08:39:42;-0.10;99.90
10312;DHT22;5201;48.776;9.128;2023-02-28T08:42:07;-0.10;99.90
10312;DHT22;5201;48.776;9.128;2023-02-28T08:44:33;0.10;99.90
10312;DHT22;5201;48.776;9.128;2023-02-28T08:46:59;0.10;99.90
10312;DHT22;5201;48.776;9.128;2023-02-28T08:49:24;0.10;99.90
10312;DHT22;5201;48.776;9.128;2023-02-28T08:51:50;0.10;99.90
10312;DHT22;5201;48.776;9.128;2023-02-28T08:54:16;0.10;99.90
10312;DHT22;5201;48.776;9.128;2023-02-28T08:56:45;0.10;99.90
10312;DHT22;5201;48.776;9.128;2023-02-28T08:59:12;0.10;99.90
10312;DHT22;5201;48.776;9.128;2023-02-28T09:01:38;0.40;99.90
10312;DHT22;5201;48.776;9.128;2023-02-28T09:04:04;-0.10;99.90
10312;DHT22;5201;48.776;9.128;2023-02-28T09:06:29;-0.10;99.90
10312;DHT22;5201;48.776;9.128;2023-02-28T09:08:59;0.20;99.90
10312;DHT22;5201;48.776;9.128;2023-02-28T09:11:27;0.10;99.90
10312;DHT22;5201;48.776;9.128;2023-02-28T09:13:53;0.20;99.90
10312;DHT22;5201;48.776;9.128;2023-02-28T09:16:21;0.30;99.90
10312;DHT22;5201;48.776;9.128;2023-02-28T09:18:47;0.20;99.90
10312;DHT22;5201;48.776;9.128;2023-02-28T09:21:16;0.00;99.90
10312;DHT22;5201;48.776;9.128;2023-02-28T09:23:47;0.10;99.90
10312;DHT22;5201;48.776;9.128;2023-02-28T09:26:15;0.10;99.90
10312;DHT22;5201;48.776;9.128;2023-02-28T09:28:41;0.10;99.90
10312;DHT22;5201;48.776;9.128;2023-02-28T09:31:12;1.00;99.90
10312;DHT22;5201;48.776;9.128;2023-02-28T09:33:39;0.40;99.90
10312;DHT22;5201;48.776;9.128;2023-02-28T09:36:04;0.40;99.90
10312;DHT22;5201;48.776;9.128;2023-02-28T09:38:31;0.40;99.90
10312;DHT22;5201;48.776;9.128;2023-02-28T09:41:00;0.30;99.90
10312;DHT22;5201;48.776;9.128;2023-02-28T09:43:29;0.40;99.90
10312;DHT22;5201;48.776;9.128;2023-02-28T09:48:36;0.60;99.90
10312;DHT22;5201;48.776;9.128;2023-02-28T09:51:15;0.60;99.90
10312;DHT22;5201;48.776;9.128;2023-02-28T09:53:48;0.60;99.90
10312;DHT22;5201;48.776;9.128;2023-02-28T09:56:27;1.20;99.90
10312;DHT22;5201;48.776;9.128;2023-02-28T09:59:02;0.70;99.90
10312;DHT22;5201;48.776;9.128;2023-02-28T10:04:59;0.70;99.90
10312;DHT22;5201;48.776;9.128;2023-02-28T10:08:05;0.70;99.90
10312;DHT22;5201;48.776;9.128;2023-02-28T10:10:57;0.80;99.90
10312;DHT22;5201;48.776;9.128;2023-02-28T10:13:35;0.90;99.90
10312;DHT22;5201;48.776;9.128;2023-02-28T10:16:06;0.80;99.90
10312;DHT22;5201;48.776;9.128;2023-02-28T10:18:46;0.80;99.90
10312;DHT22;5201;48.776;9.128;2023-02-28T10:21:21;2.10;99.90
10312;DHT22;5201;48.776;9.128;2023-02-28T10:23:48;0.90;99.90
10312;DHT22;5201;48.776;9.128;2023-02-28T10:26:17;1.00;99.90
10312;DHT22;5201;48.776;9.128;2023-02-28T10:28:44;0.90;99.90
10312;DHT22;5201;48.776;9.128;2023-02-28T10:31:15;1.00;99.90
10312;DHT22;5201;48.776;9.128;2023-02-28T10:33:42;1.40;99.90
10312;DHT22;5201;48.776;9.128;2023-02-28T10:36:14;1.40;99.90
10312;DHT22;5201;48.776;9.128;2023-02-28T10:38:42;1.40;99.90
10312;DHT22;5201;48.776;9.128;2023-02-28T10:41:10;1.40;99.90
10312;DHT22;5201;48.776;9.128;2023-02-28T10:43:37;1.40;99.90
10312;DHT22;5201;48.776;9.128;2023-02-28T10:48:33;1.40;99.90
10312;DHT22;5201;48.776;9.128;2023-02-28T10:51:00;1.50;99.90
10312;DHT22;5201;48.776;9.128;2023-02-28T10:53:48;2.00;99.90
10312;DHT22;5201;48.776;9.128;2023-02-28T10:56:20;1.70;99.90
10312;DHT22;5201;48.776;9.128;2023-02-28T10:59:02;1.70;99.90
10312;DHT22;5201;48.776;9.128;2023-02-28T11:01:43;1.60;99.90
10312;DHT22;5201;48.776;9.128;2023-02-28T11:07:00;1.90;99.90
10312;DHT22;5201;48.776;9.128;2023-02-28T11:12:01;1.80;99.90
10312;DHT22;5201;48.776;9.128;2023-02-28T11:14:30;1.80;99.90
10312;DHT22;5201;48.776;9.128;2023-02-28T11:17:01;2.00;99.90
10312;DHT22;5201;48.776;9.128;2023-02-28T11:19:32;2.30;99.90
10312;DHT22;5201;48.776;9.128;2023-02-28T11:22:04;2.50;99.90
10312;DHT22;5201;48.776;9.128;2023-02-28T11:24:33;2.60;99.90
10312;DHT22;5201;48.776;9.128;2023-02-28T11:27:01;2.90;99.90
10312;DHT22;5201;48.776;9.128;2023-02-28T11:29:29;2.90;99.90
10312;DHT22;5201;48.776;9.128;2023-02-28T11:34:35;2.70;99.90
10312;DHT22;5201;48.776;9.128;2023-02-28T11:37:02;2.90;99.70
10312;DHT22;5201;48.776;9.128;2023-02-28T11:39:32;2.80;99.80
10312;DHT22;5201;48.776;9.128;2023-02-28T12:01:25;3.30;99.20
10312;DHT22;5201;48.776;9.128;2023-02-28T12:03:59;3.30;99.20
10312;DHT22;5201;48.776;9.128;2023-02-28T12:09:20;3.40;98.90
10312;DHT22;5201;48.776;9.128;2023-02-28T12:12:32;3.50;99.10
10312;DHT22;5201;48.776;9.128;2023-02-28T12:18:04;3.90;99.10
10312;DHT22;5201;48.776;9.128;2023-02-28T12:26:17;4.10;98.20
10312;DHT22;5201;48.776;9.128;2023-02-28T12:28:54;4.10;98.20
10312;DHT22;5201;48.776;9.128;2023-02-28T12:31:27;4.30;98.20
10312;DHT22;5201;48.776;9.128;2023-02-28T12:34:00;4.30;97.90
10312;DHT22;5201;48.776;9.128;2023-02-28T12:36:27;4.40;97.90
10312;DHT22;5201;48.776;9.128;2023-02-28T12:39:01;4.30;97.70
10312;DHT22;5201;48.776;9.128;2023-02-28T12:44:34;4.30;98.00
10312;DHT22;5201;48.776;9.128;2023-02-28T12:47:08;4.40;98.00
10312;DHT22;5201;48.776;9.128;2023-02-28T12:52:10;4.40;97.40
10312;DHT22;5201;48.776;9.128;2023-02-28T12:54:49;4.20;97.30
10312;DHT22;5201;48.776;9.128;2023-02-28T12:57:28;4.10;97.50
10312;DHT22;5201;48.776;9.128;2023-02-28T13:00:13;4.90;98.20
10312;DHT22;5201;48.776;9.128;2023-02-28T13:08:36;4.10;97.50
10312;DHT22;5201;48.776;9.128;2023-02-28T13:11:23;4.10;97.80
10312;DHT22;5201;48.776;9.128;2023-02-28T13:13:57;4.20;97.90
10312;DHT22;5201;48.776;9.128;2023-02-28T13:16:23;4.40;98.00
10312;DHT22;5201;48.776;9.128;2023-02-28T13:18:49;4.70;97.50
10312;DHT22;5201;48.776;9.128;2023-02-28T13:21:27;4.70;97.30
10312;DHT22;5201;48.776;9.128;2023-02-28T13:28:58;4.60;97.90
10312;DHT22;5201;48.776;9.128;2023-02-28T13:31:24;4.60;97.30
10312;DHT22;5201;48.776;9.128;2023-02-28T13:36:31;4.50;97.30
10312;DHT22;5201;48.776;9.128;2023-02-28T13:38:59;4.40;97.20
10312;DHT22;5201;48.776;9.128;2023-02-28T13:44:13;4.30;97.40
10312;DHT22;5201;48.776;9.128;2023-02-28T14:03:19;4.80;96.90
10312;DHT22;5201;48.776;9.128;2023-02-28T14:06:08;4.80;97.00
10312;DHT22;5201;48.776;9.128;2023-02-28T14:08:35;5.50;96.60
10312;DHT22;5201;48.776;9.128;2023-02-28T14:11:09;4.70;96.70
10312;DHT22;5201;48.776;9.128;2023-02-28T14:13:48;4.80;96.70
10312;DHT22;5201;48.776;9.128;2023-02-28T14:16:21;4.80;96.70
10312;DHT22;5201;48.776;9.128;2023-02-28T14:19:14;4.80;96.90
10312;DHT22;5201;48.776;9.128;2023-02-28T14:22:40;4.50;97.10
10312;DHT22;5201;48.776;9.128;2023-02-28T14:30:51;4.70;97.00
10312;DHT22;5201;48.776;9.128;2023-02-28T14:36:21;4.80;96.50
10312;DHT22;5201;48.776;9.128;2023-02-28T14:38:55;4.90;96.70
10312;DHT22;5201;48.776;9.128;2023-02-28T14:41:30;4.90;96.60
10312;DHT22;5201;48.776;9.128;2023-02-28T14:44:00;4.90;96.50
10312;DHT22;5201;48.776;9.128;2023-02-28T14:46:36;4.90;96.70
10312;DHT22;5201;48.776;9.128;2023-02-28T14:49:04;5.10;96.50
10312;DHT22;5201;48.776;9.128;2023-02-28T14:51:30;4.80;96.40
10312;DHT22;5201;48.776;9.128;2023-02-28T14:53:59;5.30;96.60
10312;DHT22;5201;48.776;9.128;2023-02-28T14:56:37;4.90;96.60
10312;DHT22;5201;48.776;9.128;2023-02-28T14:59:04;5.00;96.30
10312;DHT22;5201;48.776;9.128;2023-02-28T15:01:30;5.20;96.40
10312;DHT22;5201;48.776;9.128;2023-02-28T15:04:05;5.20;96.60
10312;DHT22;5201;48.776;9.128;2023-02-28T15:06:32;5.00;96.40
10312;DHT22;5201;48.776;9.128;2023-02-28T15:09:09;5.00;96.50
10312;DHT22;5201;48.776;9.128;2023-02-28T15:11:35;5.10;96.60
10312;DHT22;5201;48.776;9.128;2023-02-28T15:14:02;5.10;96.30
10312;DHT22;5201;48.776;9.128;2023-02-28T15:16:33;4.90;96.50
10312;DHT22;5201;48.776;9.128;2023-02-28T15:21:34;5.00;96.50
10312;DHT22;5201;48.776;9.128;2023-02-28T15:24:06;4.80;96.70
10312;DHT22;5201;48.776;9.128;2023-02-28T15:26:37;5.50;96.90
10312;DHT22;5201;48.776;9.128;2023-02-28T15:29:11;4.90;96.90
10312;DHT22;5201;48.776;9.128;2023-02-28T15:31:55;5.00;96.60
10312;DHT22;5201;48.776;9.128;2023-02-28T15:34:26;5.00;96.70
10312;DHT22;5201;48.776;9.128;2023-02-28T15:36:53;4.90;96.70
10312;DHT22;5201;48.776;9.128;2023-02-28T15:39:21;4.90;96.90
10312;DHT22;5201;48.776;9.128;2023-02-28T15:41:47;5.00;96.80
10312;DHT22;5201;48.776;9.128;2023-02-28T15:44:17;4.90;96.80
10312;DHT22;5201;48.776;9.128;2023-02-28T15:47:04;4.90;97.00
10312;DHT22;5201;48.776;9.128;2023-02-28T15:49:44;4.90;96.90
10312;DHT22;5201;48.776;9.128;2023-02-28T15:52:14;4.90;97.00
10312;DHT22;5201;48.776;9.128;2023-02-28T15:54:41;4.90;97.00
10312;DHT22;5201;48.776;9.128;2023-02-28T15:57:14;4.90;97.10
10312;DHT22;5201;48.776;9.128;2023-02-28T15:59:45;4.70;97.10
10312;DHT22;5201;48.776;9.128;2023-02-28T16:02:23;4.70;97.20
10312;DHT22;5201;48.776;9.128;2023-02-28T16:07:28;4.90;96.90
10312;DHT22;5201;48.776;9.128;2023-02-28T16:09:54;4.90;96.80
10312;DHT22;5201;48.776;9.128;2023-02-28T16:12:22;4.90;96.90
10312;DHT22;5201;48.776;9.128;2023-02-28T16:14:52;4.70;97.10
10312;DHT22;5201;48.776;9.128;2023-02-28T16:17:26;4.60;97.20
10312;DHT22;5201;48.776;9.128;2023-02-28T16:19:53;4.60;97.30
10312;DHT22;5201;48.776;9.128;2023-02-28T16:22:18;4.50;97.40
10312;DHT22;5201;48.776;9.128;2023-02-28T16:24:44;4.50;97.50
10312;DHT22;5201;48.776;9.128;2023-02-28T16:27:36;5.20;97.90
10312;DHT22;5201;48.776;9.128;2023-02-28T16:30:04;4.70;97.50
10312;DHT22;5201;48.776;9.128;2023-02-28T16:32:32;4.60;97.30
10312;DHT22;5201;48.776;9.128;2023-02-28T16:35:00;4.70;97.50
10312;DHT22;5201;48.776;9.128;2023-02-28T16:37:27;4.60;97.40
10312;DHT22;5201;48.776;9.128;2023-02-28T16:39:52;5.70;98.20
10312;DHT22;5201;48.776;9.128;2023-02-28T16:42:27;4.40;97.80
10312;DHT22;5201;48.776;9.128;2023-02-28T16:44:54;4.30;97.80
10312;DHT22;5201;48.776;9.128;2023-02-28T16:47:20;4.20;97.80
10312;DHT22;5201;48.776;9.128;2023-02-28T16:49:47;5.50;98.40
10312;DHT22;5201;48.776;9.128;2023-02-28T16:52:13;4.20;97.90
10312;DHT22;5201;48.776;9.128;2023-02-28T16:54:39;4.10;98.00
10312;DHT22;5201;48.776;9.128;2023-02-28T16:57:06;5.30;98.40
10312;DHT22;5201;48.776;9.128;2023-02-28T16:59:38;4.20;97.90
10312;DHT22;5201;48.776;9.128;2023-02-28T17:02:12;4.20;97.80
10312;DHT22;5201;48.776;9.128;2023-02-28T17:04:39;4.20;97.90
10312;DHT22;5201;48.776;9.128;2023-02-28T17:07:06;4.10;98.00
10312;DHT22;5201;48.776;9.128;2023-02-28T17:09:33;4.10;98.40
10312;DHT22;5201;48.776;9.128;2023-02-28T17:11:59;4.00;98.10
10312;DHT22;5201;48.776;9.128;2023-02-28T17:14:24;5.00;98.50
10312;DHT22;5201;48.776;9.128;2023-02-28T17:16:50;4.00;98.00
10312;DHT22;5201;48.776;9.128;2023-02-28T17:19:16;3.90;98.10
10312;DHT22;5201;48.776;9.128;2023-02-28T17:21:42;3.90;98.10
10312;DHT22;5201;48.776;9.128;2023-02-28T17:24:09;4.50;98.40
10312;DHT22;5201;48.776;9.128;2023-02-28T17:26:38;3.80;98.20
10312;DHT22;5201;48.776;9.128;2023-02-28T17:29:09;3.70;98.50
10312;DHT22;5201;48.776;9.128;2023-02-28T17:31:38;3.80;98.50
10312;DHT22;5201;48.776;9.128;2023-02-28T17:34:04;3.80;98.40
10312;DHT22;5201;48.776;9.128;2023-02-28T17:36:30;3.80;98.40
10312;DHT22;5201;48.776;9.128;2023-02-28T17:38:59;3.80;98.40
10312;DHT22;5201;48.776;9.128;2023-02-28T17:41:24;3.70;98.60
10312;DHT22;5201;48.776;9.128;2023-02-28T17:43:52;3.60;98.70
10312;DHT22;5201;48.776;9.128;2023-02-28T17:46:20;3.40;99.00
10312;DHT22;5201;48.776;9.128;2023-02-28T17:48:50;3.40;99.20
10312;DHT22;5201;48.776;9.128;2023-02-28T17:51:18;3.50;99.20
10312;DHT22;5201;48.776;9.128;2023-02-28T17:53:43;3.30;99.40
10312;DHT22;5201;48.776;9.128;2023-02-28T17:56:15;3.20;99.60
10312;DHT22;5201;48.776;9.128;2023-02-28T17:58:41;3.10;99.70
10312;DHT22;5201;48.776;9.128;2023-02-28T18:01:07;3.10;99.80
10312;DHT22;5201;48.776;9.128;2023-02-28T18:03:33;3.00;99.90
10312;DHT22;5201;48.776;9.128;2023-02-28T18:05:59;3.10;99.90
10312;DHT22;5201;48.776;9.128;2023-02-28T18:08:24;3.00;99.90
10312;DHT22;5201;48.776;9.128;2023-02-28T18:10:51;3.00;99.90
10312;DHT22;5201;48.776;9.128;2023-02-28T18:13:17;2.90;99.90
10312;DHT22;5201;48.776;9.128;2023-02-28T18:15:42;2.80;99.90
10312;DHT22;5201;48.776;9.128;2023-02-28T18:18:08;2.70;99.90
10312;DHT22;5201;48.776;9.128;2023-02-28T18:20:34;2.70;99.90